createdAt,value
2022-08-26T00:01:37.586Z,75.90
2022-08-26T00:04:19.809Z,75.96
2022-08-26T00:07:08.585Z,76.13
2022-08-26T00:09:54.392Z,75.94
2022-08-26T00:12:37.884Z,75.78
2022-08-26T00:15:35.432Z,76.04
2022-08-26T00:18:30.948Z,75.69
2022-08-26T00:21:20.867Z,75.99
2022-08-26T00:24:10.482Z,76.38
2022-08-26T00:26:59.242Z,76.62
2022-08-26T00:29:42.487Z,76.70
2022-08-26T00:32:30.908Z,75.49
2022-08-26T00:35:13.518Z,75.96
2022-08-26T00:38:09.580Z,75.92
2022-08-26T00:41:03.504Z,75.88
2022-08-26T00:43:52.470Z,75.98
2022-08-26T00:46:46.608Z,76.50
2022-08-26T00:49:59.486Z,75.61
2022-08-26T00:52:49.885Z,75.74
2022-08-26T00:55:52.484Z,76.09
2022-08-26T00:58:43.498Z,75.98
2022-08-26T01:01:29.269Z,76.01
2022-08-26T01:04:21.465Z,75.89
2022-08-26T01:07:03.905Z,76.08
2022-08-26T01:09:53.474Z,75.66
2022-08-26T01:12:40.168Z,76.13
2022-08-26T01:15:33.476Z,76.03
2022-08-26T01:18:23.942Z,75.54
2022-08-26T01:21:26.519Z,75.56
2022-08-26T01:24:17.472Z,74.92
2022-08-26T01:27:00.734Z,74.84
2022-08-26T01:29:50.602Z,74.82
2022-08-26T01:32:33.925Z,74.22
2022-08-26T01:35:21.480Z,73.60
2022-08-26T01:38:03.823Z,74.20
2022-08-26T01:40:54.538Z,73.71
2022-08-26T01:43:38.890Z,73.76
2022-08-26T01:46:30.489Z,73.07
2022-08-26T01:49:14.866Z,73.24
2022-08-26T01:52:06.497Z,72.41
2022-08-26T01:54:56.885Z,71.93
2022-08-26T01:57:39.625Z,71.09
2022-08-26T02:00:28.936Z,70.88
2022-08-26T02:03:25.521Z,70.14
2022-08-26T02:06:15.885Z,70.21
2022-08-26T02:09:02.580Z,70.74
2022-08-26T02:11:51.031Z,71.01
2022-08-26T02:14:43.693Z,69.23
2022-08-26T02:17:47.438Z,67.89
2022-08-26T02:20:37.486Z,68.26
2022-08-26T02:23:26.500Z,66.91
2022-08-26T02:26:28.477Z,66.05
2022-08-26T02:29:37.887Z,65.42
2022-08-26T02:32:19.495Z,65.52
2022-08-26T02:35:08.406Z,65.59
2022-08-26T02:37:52.616Z,66.80
2022-08-26T02:40:44.479Z,66.04
2022-08-26T02:43:33.597Z,66.19
2022-08-26T02:46:29.723Z,66.16
2022-08-26T02:49:11.957Z,65.63
2022-08-26T02:52:00.501Z,66.03
2022-08-26T02:54:50.477Z,65.16
2022-08-26T02:57:32.720Z,64.95
2022-08-26T03:00:25.623Z,65.61
2022-08-26T03:03:14.781Z,65.81
2022-08-26T03:05:57.629Z,65.73
2022-08-26T03:08:40.318Z,65.48
2022-08-26T03:11:32.869Z,64.89
2022-08-26T03:14:22.458Z,64.72
2022-08-26T03:17:19.492Z,64.37
2022-08-26T03:20:01.650Z,64.82
2022-08-26T03:22:51.480Z,64.83
2022-08-26T03:25:41.011Z,63.83
2022-08-26T03:28:22.518Z,64.36
2022-08-26T03:31:10.899Z,62.88
2022-08-26T03:33:53.359Z,63.26
2022-08-26T03:36:37.595Z,63.47
2022-08-26T03:39:27.573Z,63.03
2022-08-26T03:42:14.005Z,62.47
2022-08-26T03:45:02.587Z,62.29
2022-08-26T03:47:51.879Z,62.39
2022-08-26T03:50:35.896Z,63.46
2022-08-26T03:53:24.922Z,63.13
2022-08-26T03:56:06.587Z,62.21
2022-08-26T03:58:48.734Z,63.80
2022-08-26T04:01:39.638Z,62.21
2022-08-26T04:04:22.888Z,64.27
2022-08-26T04:07:14.591Z,62.54
2022-08-26T04:10:04.859Z,63.63
2022-08-26T04:12:47.557Z,63.72
2022-08-26T04:15:30.162Z,64.07
2022-08-26T04:18:25.508Z,63.48
2022-08-26T04:21:21.597Z,64.14
2022-08-26T04:24:03.919Z,62.89
2022-08-26T04:26:52.597Z,63.45
2022-08-26T04:29:34.877Z,63.93
2022-08-26T04:32:24.555Z,64.01
2022-08-26T04:35:06.890Z,62.91
2022-08-26T04:37:56.613Z,61.68
2022-08-26T04:40:39.890Z,60.41
2022-08-26T04:43:38.583Z,58.26
2022-08-26T04:46:32.791Z,59.16
2022-08-26T04:49:15.318Z,58.65
2022-08-26T04:52:04.831Z,57.28
2022-08-26T04:54:53.810Z,58.20
2022-08-26T04:57:35.498Z,56.04
2022-08-26T05:00:25.884Z,56.18
2022-08-26T05:03:10.620Z,54.47
2022-08-26T05:05:59.792Z,55.28
2022-08-26T05:08:41.626Z,55.05
2022-08-26T05:11:30.604Z,51.77
2022-08-26T05:14:13.639Z,50.56
2022-08-26T05:16:55.812Z,52.36
2022-08-26T05:19:45.600Z,52.91
2022-08-26T05:22:40.499Z,51.90
2022-08-26T05:25:29.535Z,51.04
2022-08-26T05:28:33.442Z,51.10
2022-08-26T05:31:25.656Z,50.02
2022-08-26T05:34:09.501Z,49.36
2022-08-26T05:36:58.889Z,50.39
2022-08-26T05:39:41.280Z,48.68
2022-08-26T05:42:32.581Z,47.88
2022-08-26T05:45:22.599Z,50.87
2022-08-26T05:48:04.582Z,50.02
2022-08-26T05:50:51.569Z,48.80
2022-08-26T05:53:40.493Z,53.07
2022-08-26T05:56:32.844Z,51.38
2022-08-26T05:59:23.889Z,50.42
2022-08-26T06:02:08.407Z,50.56
2022-08-26T06:04:57.475Z,48.46
2022-08-26T06:08:10.657Z,46.57
2022-08-26T06:11:01.108Z,47.85
2022-08-26T06:13:51.482Z,45.76
2022-08-26T06:16:46.746Z,47.55
2022-08-26T06:19:32.987Z,50.46
2022-08-26T06:22:50.474Z,49.00
2022-08-26T06:25:49.573Z,45.00
2022-08-26T06:28:38.487Z,46.64
2022-08-26T06:31:28.642Z,48.20
2022-08-26T06:34:11.818Z,51.69
2022-08-26T06:37:01.973Z,50.96
2022-08-26T06:39:51.186Z,49.57
2022-08-26T06:42:34.579Z,49.45
2022-08-26T06:45:16.707Z,51.03
2022-08-26T06:48:05.660Z,50.42
2022-08-26T06:50:49.963Z,50.86
2022-08-26T06:53:38.611Z,51.92
2022-08-26T06:56:26.417Z,52.87
2022-08-26T06:59:16.579Z,53.02
2022-08-26T07:02:06.533Z,53.79
2022-08-26T07:04:57.504Z,52.97
2022-08-26T07:07:45.855Z,51.04
2022-08-26T07:10:27.529Z,56.06
2022-08-26T07:13:17.464Z,52.89
2022-08-26T07:16:19.536Z,52.93
2022-08-26T07:19:11.016Z,52.96
2022-08-26T07:21:53.572Z,53.32
2022-08-26T07:24:45.928Z,53.30
2022-08-26T07:27:28.602Z,54.44
2022-08-26T07:30:17.881Z,51.59
2022-08-26T07:33:00.585Z,53.11
2022-08-26T07:35:43.443Z,51.65
2022-08-26T07:38:32.585Z,51.09
2022-08-26T07:41:25.625Z,51.44
2022-08-26T07:44:14.486Z,52.05
2022-08-26T07:47:02.905Z,51.37
2022-08-26T07:49:52.898Z,50.90
2022-08-26T07:52:44.460Z,51.02
2022-08-26T07:55:29.597Z,53.99
2022-08-26T07:58:19.885Z,50.81
2022-08-26T08:01:01.645Z,50.91
2022-08-26T08:03:52.515Z,50.12
2022-08-26T08:06:35.593Z,49.15
2022-08-26T08:09:25.564Z,49.84
2022-08-26T08:12:07.839Z,51.43
2022-08-26T08:15:02.576Z,51.65
2022-08-26T08:17:45.910Z,53.03
2022-08-26T08:20:35.470Z,52.51
2022-08-26T08:23:25.560Z,51.01
2022-08-26T08:26:25.645Z,52.22
2022-08-26T08:29:14.870Z,52.68
2022-08-26T08:31:58.004Z,53.17
2022-08-26T08:34:47.935Z,51.29
2022-08-26T08:37:30.485Z,51.02
2022-08-26T08:40:26.640Z,50.77
2022-08-26T08:43:31.623Z,51.94
2022-08-26T08:46:25.910Z,53.20
2022-08-26T08:49:11.594Z,51.51
2022-08-26T08:51:56.539Z,49.81
2022-08-26T08:54:47.486Z,55.76
2022-08-26T08:57:38.686Z,58.68
2022-08-26T09:00:33.857Z,57.96
2022-08-26T09:03:38.600Z,59.79
2022-08-26T09:06:28.473Z,59.80
2022-08-26T09:09:25.573Z,59.64
2022-08-26T09:12:16.488Z,60.40
2022-08-26T09:15:30.184Z,59.26
2022-08-26T09:18:38.214Z,59.24
2022-08-26T09:21:31.500Z,58.65
2022-08-26T09:24:15.104Z,60.04
2022-08-26T09:27:14.593Z,61.04
2022-08-26T09:30:14.404Z,58.69
2022-08-26T09:33:19.629Z,57.64
2022-08-26T09:36:41.392Z,60.08
2022-08-26T09:39:37.732Z,61.05
2022-08-26T09:42:28.875Z,64.31
2022-08-26T09:45:20.489Z,66.44
2022-08-26T09:48:04.918Z,68.92
2022-08-26T09:51:06.614Z,69.08
2022-08-26T09:54:02.916Z,69.94
2022-08-26T09:56:54.590Z,71.84
2022-08-26T09:59:40.042Z,72.54
2022-08-26T10:02:39.605Z,71.86
2022-08-26T10:05:26.859Z,72.36
2022-08-26T10:08:47.561Z,72.11
2022-08-26T10:11:48.886Z,69.69
2022-08-26T10:14:49.534Z,71.64
2022-08-26T10:17:44.564Z,70.67
2022-08-26T10:20:44.909Z,69.25
2022-08-26T10:23:33.607Z,70.17
2022-08-26T10:26:30.257Z,68.29
2022-08-26T10:29:31.487Z,67.05
2022-08-26T10:32:30.961Z,69.73
2022-08-26T10:35:22.586Z,67.77
2022-08-26T10:38:11.916Z,68.12
2022-08-26T10:41:13.570Z,66.87
2022-08-26T10:44:07.899Z,66.32
2022-08-26T10:47:04.577Z,67.71
2022-08-26T10:49:49.828Z,69.59
2022-08-26T10:52:50.578Z,67.79
2022-08-26T10:55:47.752Z,67.84
2022-08-26T10:58:46.623Z,68.41
2022-08-26T11:01:51.118Z,68.08
2022-08-26T11:04:47.724Z,66.63
2022-08-26T11:08:03.503Z,66.89
2022-08-26T11:11:02.491Z,67.92
2022-08-26T11:14:07.940Z,66.81
2022-08-26T11:17:01.535Z,66.46
2022-08-26T11:20:00.266Z,66.63
2022-08-26T11:22:51.572Z,66.26
2022-08-26T11:25:34.857Z,65.92
2022-08-26T11:28:47.573Z,65.16
2022-08-26T11:31:42.550Z,65.95
2022-08-26T11:35:12.508Z,64.70
2022-08-26T11:38:30.485Z,65.60
2022-08-26T11:41:31.087Z,66.15
2022-08-26T11:44:25.483Z,65.85
2022-08-26T11:47:11.838Z,65.85
2022-08-26T11:50:15.511Z,66.47
2022-08-26T11:53:07.721Z,66.54
2022-08-26T11:55:58.492Z,65.73
2022-08-26T11:58:41.444Z,66.23
2022-08-26T12:01:36.554Z,67.08
2022-08-26T12:04:35.010Z,65.06
2022-08-26T12:07:24.678Z,64.71
2022-08-26T12:10:11.776Z,62.89
2022-08-26T12:13:05.713Z,61.73
2022-08-26T12:15:47.912Z,61.56
2022-08-26T12:18:40.534Z,60.37
2022-08-26T12:21:42.453Z,61.30
2022-08-26T12:24:30.882Z,60.91
2022-08-26T12:27:37.581Z,61.89
2022-08-26T12:30:31.103Z,61.49
2022-08-26T12:33:29.628Z,61.96
2022-08-26T12:36:18.951Z,62.48
2022-08-26T12:39:01.613Z,62.05
2022-08-26T12:41:57.945Z,61.98
2022-08-26T12:44:54.731Z,61.72
2022-08-26T12:47:45.084Z,61.20
2022-08-26T12:50:39.527Z,61.98
2022-08-26T12:53:33.490Z,61.62
2022-08-26T12:56:40.611Z,61.54
2022-08-26T12:59:34.622Z,60.58
2022-08-26T13:02:23.650Z,60.83
2022-08-26T13:05:11.765Z,60.48
2022-08-26T13:08:20.629Z,59.93
2022-08-26T13:11:16.652Z,60.33
2022-08-26T13:14:09.795Z,60.10
2022-08-26T13:16:59.604Z,60.29
2022-08-26T13:19:41.867Z,60.78
2022-08-26T13:22:32.598Z,59.93
2022-08-26T13:25:15.335Z,60.28
2022-08-26T13:28:08.517Z,60.13
2022-08-26T13:30:55.009Z,60.50
2022-08-26T13:33:44.542Z,60.76
2022-08-26T13:36:39.481Z,60.06
2022-08-26T13:39:35.606Z,61.41
2022-08-26T13:42:25.172Z,61.25
2022-08-26T13:45:14.510Z,61.79
2022-08-26T13:48:03.613Z,62.03
2022-08-26T13:50:52.524Z,62.89
2022-08-26T13:53:41.642Z,63.23
2022-08-26T13:56:31.564Z,63.49
2022-08-26T13:59:20.641Z,63.53
2022-08-26T14:02:11.632Z,63.52
2022-08-26T14:05:01.716Z,62.23
2022-08-26T14:07:43.862Z,62.12
2022-08-26T14:10:32.640Z,62.75
2022-08-26T14:13:15.404Z,62.17
2022-08-26T14:16:06.608Z,61.87
2022-08-26T14:18:56.594Z,62.08
2022-08-26T14:21:42.020Z,61.35
2022-08-26T14:24:30.517Z,61.21
2022-08-26T14:27:19.604Z,60.56
2022-08-26T14:30:01.903Z,60.58
2022-08-26T14:32:53.608Z,60.62
2022-08-26T14:35:35.895Z,59.90
2022-08-26T14:38:24.588Z,60.17
2022-08-26T14:41:20.468Z,58.82
2022-08-26T14:44:18.593Z,58.46
2022-08-26T14:47:08.634Z,59.44
2022-08-26T14:49:50.759Z,58.44
2022-08-26T14:52:59.731Z,58.44
2022-08-26T14:55:43.316Z,58.82
2022-08-26T14:58:35.030Z,59.62
2022-08-26T15:01:17.725Z,59.94
2022-08-26T15:04:06.924Z,61.55
2022-08-26T15:06:49.604Z,61.86
2022-08-26T15:09:39.554Z,61.83
2022-08-26T15:12:30.102Z,61.67
2022-08-26T15:15:15.584Z,62.51
2022-08-26T15:18:04.745Z,62.94
2022-08-26T15:20:46.921Z,62.46
2022-08-26T15:23:35.621Z,62.07
2022-08-26T15:26:26.606Z,62.83
2022-08-26T15:29:15.743Z,63.20
2022-08-26T15:31:59.121Z,63.86
2022-08-26T15:34:47.708Z,63.47
2022-08-26T15:37:30.005Z,63.84
2022-08-26T15:40:26.600Z,63.26
2022-08-26T15:43:28.668Z,63.78
2022-08-26T15:46:27.743Z,63.28
2022-08-26T15:49:18.650Z,62.97
2022-08-26T15:52:04.228Z,63.65
2022-08-26T15:54:47.857Z,63.56
2022-08-26T15:57:38.645Z,63.60
2022-08-26T16:00:28.564Z,63.47
2022-08-26T16:03:18.608Z,63.41
2022-08-26T16:06:38.979Z,63.84
2022-08-26T16:09:27.613Z,64.43
2022-08-26T16:12:09.973Z,64.41
2022-08-26T16:15:10.646Z,65.38
2022-08-26T16:17:52.955Z,64.06
2022-08-26T16:20:41.587Z,64.41
2022-08-26T16:23:45.347Z,64.85
2022-08-26T16:26:37.608Z,65.43
2022-08-26T16:29:26.814Z,64.53
2022-08-26T16:32:16.666Z,64.52
2022-08-26T16:35:06.854Z,64.90
2022-08-26T16:37:49.673Z,64.41
2022-08-26T16:40:52.536Z,63.89
2022-08-26T16:43:51.471Z,64.61
2022-08-26T16:46:49.788Z,64.12
2022-08-26T16:49:34.716Z,66.08
2022-08-26T16:52:24.872Z,65.66
2022-08-26T16:55:22.606Z,65.34
2022-08-26T16:58:04.914Z,66.35
2022-08-26T17:00:53.594Z,66.09
2022-08-26T17:03:35.984Z,66.90
2022-08-26T17:06:24.669Z,66.57
2022-08-26T17:09:06.969Z,67.05
2022-08-26T17:11:58.749Z,68.28
2022-08-26T17:14:49.538Z,67.86
2022-08-26T17:17:38.676Z,66.92
2022-08-26T17:20:23.398Z,67.45
2022-08-26T17:23:15.908Z,66.92
2022-08-26T17:26:02.159Z,66.07
2022-08-26T17:28:51.580Z,66.18
2022-08-26T17:31:33.809Z,66.41
2022-08-26T17:34:22.570Z,65.98
2022-08-26T17:37:04.880Z,65.98
2022-08-26T17:39:53.587Z,65.88
2022-08-26T17:42:35.869Z,66.04
2022-08-26T17:45:32.558Z,65.88
2022-08-26T17:48:15.792Z,66.30
2022-08-26T17:51:07.703Z,67.33
2022-08-26T17:53:59.650Z,66.59
2022-08-26T17:56:41.905Z,67.50
2022-08-26T17:59:30.836Z,67.36
2022-08-26T18:02:12.932Z,67.88
2022-08-26T18:05:01.559Z,68.20
2022-08-26T18:07:44.298Z,69.22
2022-08-26T18:10:35.499Z,69.40
2022-08-26T18:13:18.855Z,69.88
2022-08-26T18:16:11.669Z,69.06
2022-08-26T18:19:01.578Z,69.15
2022-08-26T18:21:52.917Z,69.25
2022-08-26T18:24:37.565Z,69.41
2022-08-26T18:27:26.483Z,69.50
2022-08-26T18:30:10.494Z,70.14
2022-08-26T18:33:01.527Z,70.26
2022-08-26T18:35:53.738Z,69.69
2022-08-26T18:38:45.273Z,70.11
2022-08-26T18:41:30.870Z,70.36
2022-08-26T18:44:20.582Z,70.46
2022-08-26T18:47:16.481Z,70.09
2022-08-26T18:50:05.615Z,69.84
2022-08-26T18:52:47.976Z,70.42
2022-08-26T18:55:36.550Z,70.12
2022-08-26T18:58:18.827Z,69.99
2022-08-26T19:01:07.543Z,70.38
2022-08-26T19:03:56.548Z,70.03
2022-08-26T19:06:46.489Z,70.80
2022-08-26T19:09:36.479Z,70.00
2022-08-26T19:12:27.070Z,70.41
2022-08-26T19:15:10.464Z,70.69
2022-08-26T19:17:59.919Z,70.55
2022-08-26T19:20:46.372Z,70.23
2022-08-26T19:23:31.842Z,70.34
2022-08-26T19:26:23.569Z,70.85
2022-08-26T19:29:05.951Z,70.62
2022-08-26T19:31:54.611Z,70.53
2022-08-26T19:34:37.419Z,70.09
2022-08-26T19:37:27.552Z,70.80
2022-08-26T19:40:17.898Z,70.49
2022-08-26T19:43:00.570Z,70.79
2022-08-26T19:45:55.429Z,70.65
2022-08-26T19:48:55.267Z,70.19
2022-08-26T19:51:44.563Z,69.96
2022-08-26T19:54:26.980Z,70.48
2022-08-26T19:57:15.832Z,70.33
2022-08-26T19:59:57.830Z,70.20
2022-08-26T20:02:47.580Z,69.76
2022-08-26T20:05:31.853Z,70.14
2022-08-26T20:08:22.215Z,70.52
2022-08-26T20:11:10.114Z,70.33
2022-08-26T20:13:58.532Z,70.32
2022-08-26T20:16:47.483Z,69.98
2022-08-26T20:19:54.594Z,70.79
2022-08-26T20:22:38.761Z,70.79
2022-08-26T20:25:27.512Z,71.12
2022-08-26T20:28:10.300Z,70.98
2022-08-26T20:30:59.612Z,70.96
2022-08-26T20:33:48.579Z,71.39
2022-08-26T20:36:37.589Z,72.38
2022-08-26T20:39:28.508Z,71.97
2022-08-26T20:42:20.134Z,71.92
2022-08-26T20:45:02.841Z,71.45
2022-08-26T20:47:51.597Z,71.44
2022-08-26T20:50:41.525Z,71.89
2022-08-26T20:53:30.676Z,71.93
2022-08-26T20:56:14.905Z,72.11
2022-08-26T20:59:06.518Z,72.34
2022-08-26T21:01:56.583Z,72.35
2022-08-26T21:04:38.789Z,71.63
2022-08-26T21:07:28.512Z,71.63
2022-08-26T21:10:13.046Z,72.44
2022-08-26T21:13:02.510Z,71.39
2022-08-26T21:15:50.833Z,71.55
2022-08-26T21:18:33.673Z,71.87
2022-08-26T21:21:24.980Z,71.65
2022-08-26T21:24:08.603Z,70.78
2022-08-26T21:26:56.894Z,71.62
2022-08-26T21:29:38.604Z,71.11
2022-08-26T21:32:20.740Z,71.24
2022-08-26T21:35:13.568Z,72.00
2022-08-26T21:38:01.892Z,71.90
2022-08-26T21:40:43.588Z,71.91
2022-08-26T21:43:34.747Z,72.38
2022-08-26T21:46:22.570Z,72.06
2022-08-26T21:49:21.452Z,72.39
2022-08-26T21:52:14.586Z,72.27
2022-08-26T21:55:03.600Z,72.26
2022-08-26T21:57:50.806Z,72.00
2022-08-26T22:00:39.590Z,72.29
2022-08-26T22:03:27.981Z,71.79
2022-08-26T22:06:14.514Z,71.15
2022-08-26T22:09:04.590Z,71.40
2022-08-26T22:11:54.492Z,72.16
2022-08-26T22:14:43.654Z,72.54
2022-08-26T22:17:28.106Z,71.46
2022-08-26T22:20:17.633Z,72.21
2022-08-26T22:22:59.953Z,73.46
2022-08-26T22:25:48.574Z,71.42
2022-08-26T22:28:30.810Z,71.91
2022-08-26T22:31:21.707Z,72.21
2022-08-26T22:34:16.512Z,70.50
2022-08-26T22:37:05.478Z,70.37
2022-08-26T22:39:54.532Z,70.50
2022-08-26T22:42:43.045Z,70.40
2022-08-26T22:45:39.631Z,69.21
2022-08-26T22:48:38.457Z,69.58
2022-08-26T22:51:35.582Z,69.34
2022-08-26T22:54:24.496Z,69.38
2022-08-26T22:57:13.591Z,70.02
2022-08-26T23:00:02.515Z,70.13
2022-08-26T23:02:44.893Z,70.91
2022-08-26T23:05:33.570Z,70.16
2022-08-26T23:08:17.898Z,70.63
2022-08-26T23:11:06.489Z,70.67
2022-08-26T23:13:48.959Z,70.69
2022-08-26T23:16:39.500Z,70.90
2022-08-26T23:19:23.892Z,71.17
2022-08-26T23:22:12.589Z,71.56
2022-08-26T23:24:54.763Z,71.46
2022-08-26T23:27:47.636Z,71.40
2022-08-26T23:30:42.494Z,71.29
2022-08-26T23:33:50.678Z,71.28
2022-08-26T23:36:34.376Z,71.26
2022-08-26T23:39:16.978Z,71.34
2022-08-26T23:42:05.641Z,71.24
2022-08-26T23:44:47.872Z,71.13
2022-08-26T23:47:36.606Z,71.27
2022-08-26T23:50:27.563Z,70.60
2022-08-26T23:53:16.594Z,70.55
2022-08-26T23:55:58.782Z,70.81
2022-08-26T23:58:47.494Z,70.87
